Time;durP1;ratioP1;P1;durP2;ratioP2;P2;SDS_P1;SDS_P2;PMS_P1;PMS_P2;Temp;Humidity;BMP_temperature;BMP_pressure;BME280_temperature;BME280_humidity;BME280_pressure;Samples;Min_cycle;Max_cycle;Signal;HPM_P1;HPM_P2
2021/07/22 00:01:04;;;;;;;18.05;12.50;;;;;;;;;;5041310;28;20041;-71
2021/07/22 00:03:32;;;;;;;16.65;12.38;;;;;;;;;;5041243;28;20040;-71
2021/07/22 00:06:00;;;;;;;16.65;12.88;;;;;;;;;;5039146;28;20115;-71
2021/07/22 00:08:26;;;;;;;18.77;13.55;;;;;;;;;;5039017;28;20059;-71
2021/07/22 00:10:52;;;;;;;16.33;12.90;;;;;;;;;;5041335;28;20090;-71
2021/07/22 00:13:18;;;;;;;15.93;12.50;;;;;;;;;;5042899;28;20041;-71
2021/07/22 00:15:44;;;;;;;15.10;12.50;;;;;;;;;;5041939;28;20053;-71
2021/07/22 00:18:10;;;;;;;16.50;12.23;;;;;;;;;;5041481;28;20048;-71
2021/07/22 00:20:37;;;;;;;19.52;13.05;;;;;;;;;;5039810;28;20041;-71
2021/07/22 00:23:03;;;;;;;17.42;12.88;;;;;;;;;;5043035;28;20051;-71
2021/07/22 00:25:30;;;;;;;16.60;12.30;;;;;;;;;;5043722;28;20069;-71
2021/07/22 00:27:56;;;;;;;18.52;13.07;;;;;;;;;;5040352;28;20427;-71
2021/07/22 00:30:22;;;;;;;17.90;13.45;;;;;;;;;;5042298;28;20099;-72
2021/07/22 00:32:48;;;;;;;17.30;13.02;;;;;;;;;;5043361;28;20357;-71
2021/07/22 00:35:14;;;;;;;19.13;12.95;;;;;;;;;;5040718;28;20176;-71
2021/07/22 00:37:41;;;;;;;18.73;13.57;;;;;;;;;;5040020;28;20373;-71
2021/07/22 00:40:07;;;;;;;16.90;12.65;;;;;;;;;;5040192;28;20048;-71
2021/07/22 00:42:52;;;;;;;17.05;11.73;;;;;;;;;;5035416;28;20049;-71
2021/07/22 00:45:18;;;;;;;19.95;13.32;;;;;;;;;;5031699;28;20049;-71
2021/07/22 00:47:44;;;;;;;19.75;13.13;;;;;;;;;;5034787;28;20072;-71
2021/07/22 00:50:10;;;;;;;17.35;13.23;;;;;;;;;;5038781;28;20048;-71
2021/07/22 00:52:37;;;;;;;21.67;13.60;;;;;;;;;;5042123;28;20037;-71
2021/07/22 00:55:03;;;;;;;21.73;13.10;;;;;;;;;;5037638;28;20060;-71
2021/07/22 00:57:29;;;;;;;20.38;13.20;;;;;;;;;;5045747;28;20091;-71
2021/07/22 00:59:56;;;;;;;16.08;13.27;;;;;;;;;;5046307;28;20048;-71
2021/07/22 01:02:22;;;;;;;19.80;13.50;;;;;;;;;;5043321;28;20040;-71
2021/07/22 01:04:48;;;;;;;21.17;13.50;;;;;;;;;;5043819;28;20045;-71
2021/07/22 01:07:14;;;;;;;18.75;13.73;;;;;;;;;;5043016;28;20118;-71
2021/07/22 01:09:41;;;;;;;20.35;13.43;;;;;;;;;;5043998;28;20512;-71
2021/07/22 01:12:07;;;;;;;18.33;13.63;;;;;;;;;;5038756;28;20041;-71
2021/07/22 01:14:33;;;;;;;18.15;13.18;;;;;;;;;;5047487;28;20134;-71
2021/07/22 01:16:59;;;;;;;18.77;13.85;;;;;;;;;;5048997;28;20120;-71
2021/07/22 01:19:26;;;;;;;21.58;13.02;;;;;;;;;;5048788;28;20041;-71
2021/07/22 01:21:52;;;;;;;18.98;14.10;;;;;;;;;;5047025;28;20053;-71
2021/07/22 01:24:19;;;;;;;19.45;13.38;;;;;;;;;;5045469;28;20047;-71
2021/07/22 01:26:45;;;;;;;19.88;13.27;;;;;;;;;;5046874;28;20443;-71
2021/07/22 01:29:11;;;;;;;23.55;14.38;;;;;;;;;;5048193;28;20163;-71
2021/07/22 01:31:37;;;;;;;18.63;13.32;;;;;;;;;;5042982;28;20475;-71
2021/07/22 01:34:03;;;;;;;22.38;12.63;;;;;;;;;;5043206;28;20040;-71
2021/07/22 01:36:30;;;;;;;20.50;12.90;;;;;;;;;;5043419;28;20087;-71
2021/07/22 01:39:00;;;;;;;19.58;12.48;;;;;;;;;;5047003;28;20057;-71
2021/07/22 01:41:26;;;;;;;19.40;12.63;;;;;;;;;;5042925;28;20396;-71
2021/07/22 01:43:52;;;;;;;19.33;13.38;;;;;;;;;;5044951;28;20072;-71
2021/07/22 01:46:19;;;;;;;16.13;11.38;;;;;;;;;;5045652;28;20056;-71
2021/07/22 01:48:46;;;;;;;21.00;11.65;;;;;;;;;;5046000;28;20052;-71
2021/07/22 01:51:12;;;;;;;18.90;11.82;;;;;;;;;;5039053;28;20091;-71
2021/07/22 01:53:38;;;;;;;16.90;10.43;;;;;;;;;;5045132;28;20049;-71
2021/07/22 01:56:04;;;;;;;19.25;11.70;;;;;;;;;;5046181;28;20141;-71
2021/07/22 01:58:33;;;;;;;17.92;9.73;;;;;;;;;;5048089;28;20040;-71
2021/07/22 02:01:02;;;;;;;15.88;10.32;;;;;;;;;;5046480;28;20484;-71
2021/07/22 02:03:28;;;;;;;16.05;11.40;;;;;;;;;;5044271;28;20044;-72
2021/07/22 02:05:54;;;;;;;18.27;11.18;;;;;;;;;;5039614;28;20504;-71
2021/07/22 02:08:20;;;;;;;15.55;11.13;;;;;;;;;;5039515;28;20055;-71
2021/07/22 02:10:47;;;;;;;14.40;9.77;;;;;;;;;;5033808;28;20052;-71
2021/07/22 02:13:13;;;;;;;15.02;9.65;;;;;;;;;;5039249;28;20049;-71
2021/07/22 02:15:39;;;;;;;19.45;11.30;;;;;;;;;;5044582;28;20125;-71
2021/07/22 02:18:05;;;;;;;15.35;9.93;;;;;;;;;;5044056;28;20489;-71
2021/07/22 02:20:31;;;;;;;14.50;9.40;;;;;;;;;;5045618;28;20423;-71
2021/07/22 02:22:58;;;;;;;13.27;9.20;;;;;;;;;;5041994;28;20059;-71
2021/07/22 02:25:24;;;;;;;14.07;9.45;;;;;;;;;;5046130;28;20086;-71
2021/07/22 02:27:50;;;;;;;14.68;8.82;;;;;;;;;;5048154;28;20052;-71
2021/07/22 02:30:17;;;;;;;13.00;8.50;;;;;;;;;;5046443;28;20048;-71
2021/07/22 02:32:43;;;;;;;12.60;8.93;;;;;;;;;;5045839;28;20057;-71
2021/07/22 02:35:09;;;;;;;16.48;9.02;;;;;;;;;;5044896;28;20053;-71
2021/07/22 02:37:35;;;;;;;12.75;8.43;;;;;;;;;;5039669;28;20194;-71
2021/07/22 02:40:01;;;;;;;12.57;8.25;;;;;;;;;;5041470;28;20108;-71
2021/07/22 02:42:28;;;;;;;14.38;8.18;;;;;;;;;;5042914;28;20068;-71
2021/07/22 02:44:54;;;;;;;15.75;9.07;;;;;;;;;;5045085;28;20049;-71
2021/07/22 02:47:20;;;;;;;13.45;8.45;;;;;;;;;;5041967;28;20400;-71
2021/07/22 02:49:46;;;;;;;14.23;8.82;;;;;;;;;;5042339;28;20040;-71
2021/07/22 02:52:13;;;;;;;14.48;8.50;;;;;;;;;;5038995;28;20041;-71
2021/07/22 02:54:39;;;;;;;13.13;7.85;;;;;;;;;;5042822;28;20045;-71
2021/07/22 02:57:05;;;;;;;16.58;8.65;;;;;;;;;;5042665;28;20389;-71
2021/07/22 02:59:31;;;;;;;14.70;8.68;;;;;;;;;;5042649;28;20237;-71
2021/07/22 03:01:58;;;;;;;13.65;8.57;;;;;;;;;;5041643;28;20041;-71
2021/07/22 03:04:24;;;;;;;14.07;8.38;;;;;;;;;;5040670;28;20056;-71
2021/07/22 03:06:50;;;;;;;11.90;7.93;;;;;;;;;;5045064;28;20199;-71
2021/07/22 03:09:16;;;;;;;12.00;8.57;;;;;;;;;;5043808;28;20057;-71
2021/07/22 03:11:42;;;;;;;11.82;8.25;;;;;;;;;;5039961;28;20447;-71
2021/07/22 03:14:09;;;;;;;11.88;8.02;;;;;;;;;;5044285;28;20071;-71
2021/07/22 03:16:35;;;;;;;10.88;6.78;;;;;;;;;;5045008;28;20040;-71
2021/07/22 03:19:01;;;;;;;11.60;7.97;;;;;;;;;;5042961;28;20052;-71
2021/07/22 03:21:27;;;;;;;15.77;7.68;;;;;;;;;;5044998;28;20088;-71
2021/07/22 03:23:54;;;;;;;13.27;7.43;;;;;;;;;;5044098;28;20045;-71
2021/07/22 03:26:21;;;;;;;12.13;7.50;;;;;;;;;;5043703;28;20048;-71
2021/07/22 03:28:48;;;;;;;14.20;8.27;;;;;;;;;;5040443;28;20985;-71
2021/07/22 03:31:14;;;;;;;12.18;6.95;;;;;;;;;;5043789;28;20111;-71
2021/07/22 03:33:40;;;;;;;10.45;7.35;;;;;;;;;;5044694;28;20037;-71
2021/07/22 03:36:06;;;;;;;11.73;6.75;;;;;;;;;;5036816;28;20053;-71
2021/07/22 03:38:32;;;;;;;12.55;7.30;;;;;;;;;;5042820;28;20612;-71
2021/07/22 03:40:59;;;;;;;11.23;7.38;;;;;;;;;;5040404;28;20131;-71
2021/07/22 03:43:25;;;;;;;10.73;7.28;;;;;;;;;;5039117;28;20056;-71
2021/07/22 03:45:58;;;;;;;16.17;7.28;;;;;;;;;;5042435;28;20071;-71
2021/07/22 03:48:25;;;;;;;14.05;7.63;;;;;;;;;;5042240;28;20132;-71
2021/07/22 03:50:51;;;;;;;10.77;7.25;;;;;;;;;;5042031;28;20075;-71
2021/07/22 03:53:17;;;;;;;10.00;6.55;;;;;;;;;;5043708;28;20037;-71
2021/07/22 03:55:43;;;;;;;9.38;7.15;;;;;;;;;;5043305;28;20106;-71
2021/07/22 03:58:10;;;;;;;13.15;6.85;;;;;;;;;;5042093;28;20064;-71
2021/07/22 04:00:36;;;;;;;9.73;5.72;;;;;;;;;;5040739;28;20045;-71
2021/07/22 04:03:04;;;;;;;16.33;6.28;;;;;;;;;;5038268;28;20044;-71
2021/07/22 04:05:30;;;;;;;9.32;5.57;;;;;;;;;;5042063;28;20374;-71
2021/07/22 04:07:57;;;;;;;10.30;5.75;;;;;;;;;;5035942;28;20148;-71
2021/07/22 04:10:24;;;;;;;7.63;4.70;;;;;;;;;;5031766;28;20050;-71
2021/07/22 04:12:54;;;;;;;11.30;4.97;;;;;;;;;;5027849;28;20370;-71
2021/07/22 04:15:20;;;;;;;10.13;5.20;;;;;;;;;;5041914;28;20141;-71
2021/07/22 04:17:49;;;;;;;7.82;4.97;;;;;;;;;;5042357;28;20083;-71
2021/07/22 04:20:16;;;;;;;7.22;5.28;;;;;;;;;;5044817;28;20049;-71
2021/07/22 04:22:42;;;;;;;8.52;4.70;;;;;;;;;;5045654;28;20065;-71
2021/07/22 04:25:09;;;;;;;7.95;4.47;;;;;;;;;;5041785;28;20120;-71
2021/07/22 04:27:36;;;;;;;8.38;4.55;;;;;;;;;;5042090;28;20033;-71
2021/07/22 04:30:02;;;;;;;7.82;4.78;;;;;;;;;;5043468;28;20044;-71
2021/07/22 04:32:28;;;;;;;15.82;6.43;;;;;;;;;;5044607;28;20125;-71
2021/07/22 04:34:54;;;;;;;11.40;5.20;;;;;;;;;;5041470;28;20029;-71
2021/07/22 04:37:20;;;;;;;8.32;5.28;;;;;;;;;;5039450;28;20119;-71
2021/07/22 04:39:47;;;;;;;8.50;5.20;;;;;;;;;;5040071;28;20155;-71
2021/07/22 04:42:13;;;;;;;6.57;4.68;;;;;;;;;;5049219;28;20044;-71
2021/07/22 04:44:39;;;;;;;11.38;5.05;;;;;;;;;;5040599;28;20121;-71
2021/07/22 04:47:05;;;;;;;10.38;5.43;;;;;;;;;;5044726;28;20045;-71
2021/07/22 04:49:32;;;;;;;9.27;5.57;;;;;;;;;;5049173;28;20053;-71
2021/07/22 04:51:59;;;;;;;9.30;5.07;;;;;;;;;;5050353;28;20430;-71
2021/07/22 04:54:25;;;;;;;10.52;5.05;;;;;;;;;;5042124;28;20445;-71
2021/07/22 04:56:51;;;;;;;9.45;5.47;;;;;;;;;;5043087;28;20066;-71
2021/07/22 04:59:18;;;;;;;8.77;5.20;;;;;;;;;;5040385;28;20121;-71
2021/07/22 05:01:44;;;;;;;9.45;5.07;;;;;;;;;;5048110;28;20049;-71
2021/07/22 05:04:17;;;;;;;7.10;4.50;;;;;;;;;;5040809;28;20124;-71
2021/07/22 05:06:44;;;;;;;7.85;5.03;;;;;;;;;;5045226;28;20049;-71
2021/07/22 05:09:10;;;;;;;7.97;4.90;;;;;;;;;;5044400;28;20113;-71
2021/07/22 05:11:36;;;;;;;10.60;5.47;;;;;;;;;;5044256;28;20064;-71
2021/07/22 05:14:02;;;;;;;8.85;4.88;;;;;;;;;;5033606;28;20053;-71
2021/07/22 05:16:28;;;;;;;8.23;5.15;;;;;;;;;;5046975;28;20073;-71
2021/07/22 05:18:54;;;;;;;7.72;4.65;;;;;;;;;;5046652;28;20091;-71
2021/07/22 05:21:21;;;;;;;9.10;4.40;;;;;;;;;;5046246;28;20041;-71
2021/07/22 05:23:47;;;;;;;7.05;4.43;;;;;;;;;;5045500;28;20437;-71
2021/07/22 05:26:15;;;;;;;7.68;4.20;;;;;;;;;;5046107;28;20049;-72
2021/07/22 05:28:41;;;;;;;7.72;4.68;;;;;;;;;;5043636;28;20148;-72
2021/07/22 05:31:08;;;;;;;10.52;4.72;;;;;;;;;;5046642;28;20053;-72
2021/07/22 05:33:36;;;;;;;7.72;5.20;;;;;;;;;;5044632;28;20120;-72
2021/07/22 05:36:03;;;;;;;7.10;4.32;;;;;;;;;;5043852;28;20069;-72
2021/07/22 05:38:31;;;;;;;10.27;4.68;;;;;;;;;;5037240;28;20124;-72
2021/07/22 05:41:04;;;;;;;6.50;4.45;;;;;;;;;;5047812;28;20159;-72
2021/07/22 05:43:30;;;;;;;6.70;3.87;;;;;;;;;;5040052;28;20086;-72
2021/07/22 05:45:57;;;;;;;6.55;4.05;;;;;;;;;;5046931;28;20357;-72
2021/07/22 05:48:23;;;;;;;8.63;4.55;;;;;;;;;;5047633;28;20748;-72
2021/07/22 05:50:49;;;;;;;8.73;4.95;;;;;;;;;;5045809;28;20411;-72
2021/07/22 05:53:16;;;;;;;7.57;4.03;;;;;;;;;;5046832;28;20071;-72
2021/07/22 05:55:42;;;;;;;9.38;3.60;;;;;;;;;;5046585;28;20076;-72
2021/07/22 05:58:09;;;;;;;7.07;3.90;;;;;;;;;;5042155;28;20036;-72
2021/07/22 06:00:35;;;;;;;6.20;3.92;;;;;;;;;;5043429;28;20057;-72
2021/07/22 06:03:07;;;;;;;8.27;3.30;;;;;;;;;;5038928;28;20037;-72
2021/07/22 06:05:34;;;;;;;8.48;4.47;;;;;;;;;;5040566;28;20469;-72
2021/07/22 06:08:02;;;;;;;6.55;3.58;;;;;;;;;;5039495;28;20158;-72
2021/07/22 06:10:29;;;;;;;7.05;3.90;;;;;;;;;;5040864;28;20064;-72
2021/07/22 06:12:55;;;;;;;7.28;3.22;;;;;;;;;;5039748;28;20051;-72
2021/07/22 06:15:22;;;;;;;5.78;3.65;;;;;;;;;;5037833;28;20129;-73
2021/07/22 06:17:48;;;;;;;8.32;3.53;;;;;;;;;;5036199;28;20045;-72
2021/07/22 06:20:15;;;;;;;7.20;3.60;;;;;;;;;;5046507;28;20484;-72
2021/07/22 06:22:44;;;;;;;8.77;3.28;;;;;;;;;;5047019;28;20084;-72
2021/07/22 06:25:11;;;;;;;13.40;4.70;;;;;;;;;;5040054;28;20424;-72
2021/07/22 06:27:38;;;;;;;5.95;3.05;;;;;;;;;;5046169;28;20041;-72
2021/07/22 06:30:04;;;;;;;7.55;3.75;;;;;;;;;;5042424;28;20140;-72
2021/07/22 06:32:30;;;;;;;8.05;2.88;;;;;;;;;;5044921;28;20392;-71
2021/07/22 06:34:56;;;;;;;6.55;3.05;;;;;;;;;;5038281;28;20059;-71
2021/07/22 06:37:23;;;;;;;5.47;2.85;;;;;;;;;;5039342;28;20513;-72
2021/07/22 06:39:49;;;;;;;10.60;3.35;;;;;;;;;;5041931;28;20404;-71
2021/07/22 06:42:15;;;;;;;7.72;3.67;;;;;;;;;;5041657;28;20170;-71
2021/07/22 06:44:41;;;;;;;12.98;3.83;;;;;;;;;;5043639;28;20037;-71
2021/07/22 06:47:07;;;;;;;8.77;3.97;;;;;;;;;;5036203;28;20045;-71
2021/07/22 06:49:34;;;;;;;6.35;4.03;;;;;;;;;;5043712;28;20096;-71
2021/07/22 06:52:00;;;;;;;5.93;3.65;;;;;;;;;;5038731;28;20045;-71
2021/07/22 06:54:26;;;;;;;8.25;3.65;;;;;;;;;;5045485;28;20113;-71
2021/07/22 06:56:52;;;;;;;5.90;3.58;;;;;;;;;;5043362;28;20045;-72
2021/07/22 06:59:18;;;;;;;11.20;3.47;;;;;;;;;;5036418;28;20327;-71
2021/07/22 07:01:45;;;;;;;7.15;4.03;;;;;;;;;;5043950;28;20053;-71
2021/07/22 07:04:11;;;;;;;7.55;3.58;;;;;;;;;;5037435;28;20150;-70
2021/07/22 07:06:38;;;;;;;7.55;3.53;;;;;;;;;;5042771;28;20041;-71
2021/07/22 07:09:04;;;;;;;5.60;3.42;;;;;;;;;;5040813;28;20128;-70
2021/07/22 07:11:30;;;;;;;8.18;4.03;;;;;;;;;;5042193;28;20397;-71
2021/07/22 07:13:56;;;;;;;7.20;3.03;;;;;;;;;;5040324;28;20052;-71
2021/07/22 07:16:23;;;;;;;7.05;3.33;;;;;;;;;;5044162;28;20041;-70
2021/07/22 07:18:49;;;;;;;9.27;3.50;;;;;;;;;;5045259;28;20044;-71
2021/07/22 07:21:15;;;;;;;6.95;2.97;;;;;;;;;;5036822;28;20037;-71
2021/07/22 07:23:42;;;;;;;7.88;3.10;;;;;;;;;;5042376;28;20040;-71
2021/07/22 07:26:09;;;;;;;7.03;2.75;;;;;;;;;;5002675;28;1113576;-70
2021/07/22 07:28:35;;;;;;;5.72;2.92;;;;;;;;;;5042729;28;20044;-71
2021/07/22 07:31:02;;;;;;;7.50;3.20;;;;;;;;;;5046500;28;20124;-70
2021/07/22 07:33:28;;;;;;;6.97;3.53;;;;;;;;;;5041394;28;20091;-71
2021/07/22 07:35:55;;;;;;;7.45;3.15;;;;;;;;;;5040505;28;20075;-71
2021/07/22 07:38:21;;;;;;;6.75;2.95;;;;;;;;;;5043955;28;20076;-71
2021/07/22 07:40:47;;;;;;;6.82;2.72;;;;;;;;;;5045080;28;20045;-71
2021/07/22 07:43:20;;;;;;;5.60;2.88;;;;;;;;;;5036914;28;20448;-71
2021/07/22 07:45:47;;;;;;;5.63;3.15;;;;;;;;;;5040165;28;20041;-71
2021/07/22 07:48:13;;;;;;;6.70;3.00;;;;;;;;;;5042810;28;20103;-71
2021/07/22 07:50:39;;;;;;;6.38;3.03;;;;;;;;;;5045027;28;20088;-71
2021/07/22 07:53:12;;;;;;;5.60;3.10;;;;;;;;;;5041544;28;20107;-70
2021/07/22 07:55:39;;;;;;;6.53;2.80;;;;;;;;;;5044116;28;20037;-70
2021/07/22 07:58:05;;;;;;;5.05;2.70;;;;;;;;;;5038896;28;20091;-71
2021/07/22 08:00:31;;;;;;;6.47;3.10;;;;;;;;;;5046266;28;20049;-70
2021/07/22 08:02:59;;;;;;;7.03;3.10;;;;;;;;;;5036689;28;20401;-71
2021/07/22 08:05:25;;;;;;;7.07;2.88;;;;;;;;;;5046338;28;20108;-71
2021/07/22 08:07:52;;;;;;;5.40;2.80;;;;;;;;;;5042323;28;20070;-71
2021/07/22 08:10:18;;;;;;;7.95;3.17;;;;;;;;;;5034470;28;20072;-71
2021/07/22 08:12:44;;;;;;;7.80;3.00;;;;;;;;;;5039765;28;20057;-71
2021/07/22 08:15:11;;;;;;;5.80;3.22;;;;;;;;;;5042520;28;20071;-71
2021/07/22 08:17:37;;;;;;;7.50;2.90;;;;;;;;;;5041560;28;20091;-71
2021/07/22 08:20:06;;;;;;;5.25;2.72;;;;;;;;;;5039519;28;20050;-71
2021/07/22 08:22:32;;;;;;;7.10;2.60;;;;;;;;;;5041974;28;20096;-71
2021/07/22 08:24:59;;;;;;;6.43;3.40;;;;;;;;;;5039781;28;20045;-71
2021/07/22 08:27:32;;;;;;;7.00;3.42;;;;;;;;;;5044201;28;20048;-71
2021/07/22 08:29:59;;;;;;;5.85;3.40;;;;;;;;;;5040198;28;20597;-70
2021/07/22 08:32:26;;;;;;;5.88;3.53;;;;;;;;;;5042305;28;20144;-71
2021/07/22 08:34:52;;;;;;;5.80;2.97;;;;;;;;;;5042886;28;20128;-71
2021/07/22 08:37:18;;;;;;;4.80;2.80;;;;;;;;;;5043196;28;20429;-71
2021/07/22 08:39:45;;;;;;;7.20;3.42;;;;;;;;;;5040395;28;20103;-71
2021/07/22 08:42:13;;;;;;;6.45;2.78;;;;;;;;;;5036859;28;20091;-70
2021/07/22 08:44:41;;;;;;;4.95;3.03;;;;;;;;;;5042969;28;20142;-71
2021/07/22 08:47:08;;;;;;;6.18;3.30;;;;;;;;;;5040996;28;20037;-70
2021/07/22 08:49:35;;;;;;;6.95;3.55;;;;;;;;;;5043944;28;20052;-71
2021/07/22 08:52:01;;;;;;;5.80;3.42;;;;;;;;;;5037670;28;20037;-71
2021/07/22 08:54:28;;;;;;;8.70;3.30;;;;;;;;;;5044525;28;20048;-71
2021/07/22 08:56:55;;;;;;;8.07;3.78;;;;;;;;;;5038775;28;20048;-71
2021/07/22 08:59:23;;;;;;;6.97;2.97;;;;;;;;;;5041031;28;20041;-71
2021/07/22 09:01:51;;;;;;;5.22;2.58;;;;;;;;;;5041652;28;20037;-71
2021/07/22 09:04:17;;;;;;;5.80;3.13;;;;;;;;;;5039996;28;20053;-71
2021/07/22 09:06:43;;;;;;;9.13;3.10;;;;;;;;;;5040724;28;20489;-71
2021/07/22 09:09:11;;;;;;;4.20;2.70;;;;;;;;;;5041947;28;20065;-71
2021/07/22 09:11:52;;;;;;;6.95;3.22;;;;;;;;;;5042973;28;20516;-71
2021/07/22 09:14:18;;;;;;;7.55;3.13;;;;;;;;;;5040053;28;20160;-71
2021/07/22 09:16:44;;;;;;;4.10;2.50;;;;;;;;;;5042927;28;20067;-71
2021/07/22 09:19:30;;;;;;;8.15;3.28;;;;;;;;;;5041149;28;20033;-71
2021/07/22 09:21:57;;;;;;;6.07;3.30;;;;;;;;;;5042598;28;20071;-71
2021/07/22 09:24:23;;;;;;;5.90;3.53;;;;;;;;;;5039393;28;20048;-71
2021/07/22 09:26:53;;;;;;;8.45;3.30;;;;;;;;;;5045875;28;20501;-71
2021/07/22 09:29:19;;;;;;;9.82;3.55;;;;;;;;;;5046046;28;20057;-71
2021/07/22 09:31:46;;;;;;;6.63;3.72;;;;;;;;;;5038534;28;20099;-71
2021/07/22 09:34:18;;;;;;;12.82;3.47;;;;;;;;;;5045149;28;20422;-71
2021/07/22 09:36:44;;;;;;;5.45;2.72;;;;;;;;;;5047524;28;20122;-71
2021/07/22 09:39:21;;;;;;;8.00;2.70;;;;;;;;;;5048423;28;20068;-72
2021/07/22 09:42:04;;;;;;;6.18;3.10;;;;;;;;;;5043572;28;20045;-72
2021/07/22 09:44:31;;;;;;;5.03;2.93;;;;;;;;;;5039025;28;20041;-71
2021/07/22 09:46:57;;;;;;;6.18;2.67;;;;;;;;;;5045179;28;20082;-72
2021/07/22 09:49:35;;;;;;;6.20;2.67;;;;;;;;;;5045554;28;20057;-72
2021/07/22 09:52:02;;;;;;;5.32;2.58;;;;;;;;;;5041581;28;20045;-72
2021/07/22 09:54:36;;;;;;;4.95;2.63;;;;;;;;;;5042776;28;20067;-72
2021/07/22 09:57:03;;;;;;;7.22;2.60;;;;;;;;;;5040528;28;20124;-72
2021/07/22 09:59:30;;;;;;;5.65;2.30;;;;;;;;;;5047677;28;20064;-71
2021/07/22 10:01:59;;;;;;;6.80;2.45;;;;;;;;;;5036714;28;20049;-71
2021/07/22 10:04:27;;;;;;;4.70;2.28;;;;;;;;;;5043195;28;20531;-71
2021/07/22 10:06:55;;;;;;;6.07;2.30;;;;;;;;;;5045150;28;20482;-71
2021/07/22 10:09:22;;;;;;;6.30;2.50;;;;;;;;;;5046937;28;20049;-71
2021/07/22 10:11:48;;;;;;;5.18;2.33;;;;;;;;;;5034881;28;20034;-72
2021/07/22 10:14:15;;;;;;;4.45;2.20;;;;;;;;;;5041647;28;20047;-72
2021/07/22 10:16:41;;;;;;;6.85;2.17;;;;;;;;;;5041549;28;20067;-72
2021/07/22 10:19:07;;;;;;;4.75;2.15;;;;;;;;;;5043346;28;20055;-72
2021/07/22 10:21:33;;;;;;;3.60;2.30;;;;;;;;;;5037181;28;20060;-72
2021/07/22 10:24:00;;;;;;;7.97;2.80;;;;;;;;;;5044449;28;20041;-72
2021/07/22 10:26:26;;;;;;;11.13;3.35;;;;;;;;;;5049352;28;20131;-72
2021/07/22 10:28:54;;;;;;;5.55;2.72;;;;;;;;;;5049527;28;20069;-72
2021/07/22 10:31:20;;;;;;;5.22;2.63;;;;;;;;;;5051380;28;20482;-72
2021/07/22 10:33:47;;;;;;;5.03;2.15;;;;;;;;;;5051201;28;20130;-72
2021/07/22 10:36:14;;;;;;;4.43;2.42;;;;;;;;;;5041292;28;20139;-72
2021/07/22 10:38:42;;;;;;;4.20;2.38;;;;;;;;;;5045177;28;20041;-72
2021/07/22 10:41:08;;;;;;;4.95;2.08;;;;;;;;;;5045825;28;20069;-72
2021/07/22 10:43:34;;;;;;;6.50;2.40;;;;;;;;;;5040599;28;20046;-72
2021/07/22 10:46:01;;;;;;;4.68;2.20;;;;;;;;;;5041129;28;20037;-72
2021/07/22 10:48:27;;;;;;;4.75;2.30;;;;;;;;;;5042603;28;20041;-72
2021/07/22 10:50:54;;;;;;;5.75;2.78;;;;;;;;;;5042923;28;20465;-72
2021/07/22 10:53:40;;;;;;;5.38;2.17;;;;;;;;;;5042306;28;20045;-72
2021/07/22 10:56:08;;;;;;;7.85;2.70;;;;;;;;;;5043943;28;20092;-72
2021/07/22 10:58:34;;;;;;;4.47;2.70;;;;;;;;;;5043204;28;20660;-72
2021/07/22 11:01:00;;;;;;;6.57;2.78;;;;;;;;;;5043062;28;20036;-73
2021/07/22 11:03:34;;;;;;;6.47;2.60;;;;;;;;;;5040277;28;20045;-72
2021/07/22 11:06:01;;;;;;;6.60;2.17;;;;;;;;;;5044629;28;20140;-71
2021/07/22 11:08:29;;;;;;;4.20;1.77;;;;;;;;;;5041429;28;20089;-70
2021/07/22 11:10:57;;;;;;;4.30;2.15;;;;;;;;;;5046518;28;20049;-70
2021/07/22 11:13:34;;;;;;;6.07;1.90;;;;;;;;;;5043335;28;20045;-70
2021/07/22 11:16:01;;;;;;;4.63;2.00;;;;;;;;;;5040380;28;20051;-71
2021/07/22 11:18:40;;;;;;;3.75;1.67;;;;;;;;;;5047754;28;20052;-69
2021/07/22 11:21:07;;;;;;;4.75;2.08;;;;;;;;;;5045690;28;20041;-69
2021/07/22 11:23:33;;;;;;;4.28;1.90;;;;;;;;;;5045399;28;20053;-70
2021/07/22 11:26:00;;;;;;;4.95;1.92;;;;;;;;;;5040535;28;20461;-69
2021/07/22 11:28:27;;;;;;;4.15;2.10;;;;;;;;;;5045215;28;20049;-70
2021/07/22 11:31:00;;;;;;;6.05;1.90;;;;;;;;;;5051174;28;20115;-70
2021/07/22 11:33:29;;;;;;;4.72;2.00;;;;;;;;;;5050191;28;20534;-70
2021/07/22 11:35:57;;;;;;;5.00;1.90;;;;;;;;;;5051125;28;20488;-70
2021/07/22 11:38:24;;;;;;;4.55;1.40;;;;;;;;;;5049636;28;20060;-69
2021/07/22 11:40:50;;;;;;;4.53;1.60;;;;;;;;;;5049904;28;20049;-70
2021/07/22 11:43:32;;;;;;;4.47;1.80;;;;;;;;;;5051046;28;20045;-70
2021/07/22 11:45:58;;;;;;;3.80;1.55;;;;;;;;;;5051083;28;20048;-70
2021/07/22 11:48:25;;;;;;;3.80;1.65;;;;;;;;;;5048362;28;20438;-70
2021/07/22 11:50:59;;;;;;;3.72;1.60;;;;;;;;;;5050651;28;20098;-70
2021/07/22 11:53:26;;;;;;;3.97;1.42;;;;;;;;;;5050724;28;20048;-70
2021/07/22 11:55:52;;;;;;;4.60;1.52;;;;;;;;;;5049897;28;20073;-70
2021/07/22 11:58:18;;;;;;;4.13;1.40;;;;;;;;;;5050894;28;20094;-70
2021/07/22 12:00:44;;;;;;;4.75;1.60;;;;;;;;;;5050624;28;20090;-70
2021/07/22 12:03:10;;;;;;;5.38;1.50;;;;;;;;;;5049753;28;20049;-70
2021/07/22 12:05:36;;;;;;;4.82;1.75;;;;;;;;;;5050544;28;20045;-70
2021/07/22 12:08:15;;;;;;;3.53;1.30;;;;;;;;;;5050292;28;20087;-70
2021/07/22 12:10:41;;;;;;;3.35;1.40;;;;;;;;;;5040737;28;20437;-70
2021/07/22 12:13:09;;;;;;;4.80;1.50;;;;;;;;;;5045291;28;20562;-70
2021/07/22 12:15:36;;;;;;;3.17;1.48;;;;;;;;;;5049789;28;20509;-70
2021/07/22 12:18:02;;;;;;;3.78;1.48;;;;;;;;;;5050431;28;20436;-69
2021/07/22 12:20:29;;;;;;;4.93;1.83;;;;;;;;;;5050123;28;20045;-70
2021/07/22 12:22:55;;;;;;;3.00;1.60;;;;;;;;;;5049610;28;20045;-70
2021/07/22 12:25:24;;;;;;;6.40;1.60;;;;;;;;;;5050080;28;20092;-70
2021/07/22 12:27:52;;;;;;;8.27;2.03;;;;;;;;;;5050198;28;20442;-70
2021/07/22 12:30:27;;;;;;;3.50;1.80;;;;;;;;;;5049380;28;20357;-70
2021/07/22 12:32:55;;;;;;;3.53;1.48;;;;;;;;;;5050263;28;20044;-70
2021/07/22 12:35:28;;;;;;;5.00;1.60;;;;;;;;;;5050229;28;20080;-70
2021/07/22 12:37:56;;;;;;;3.65;1.75;;;;;;;;;;5049707;28;20059;-70
2021/07/22 12:40:42;;;;;;;5.93;1.70;;;;;;;;;;5050117;28;20069;-70
2021/07/22 12:43:10;;;;;;;3.80;1.30;;;;;;;;;;5050228;28;20067;-70
2021/07/22 12:45:36;;;;;;;12.10;1.98;;;;;;;;;;5049724;28;20044;-70
2021/07/22 12:48:02;;;;;;;3.60;1.33;;;;;;;;;;5050258;28;20049;-70
2021/07/22 12:50:29;;;;;;;5.47;1.77;;;;;;;;;;5049687;28;20120;-70
2021/07/22 12:52:59;;;;;;;3.30;1.48;;;;;;;;;;5050063;28;20041;-70
2021/07/22 12:55:34;;;;;;;3.70;1.30;;;;;;;;;;5050125;28;20049;-70
2021/07/22 12:58:01;;;;;;;5.30;1.92;;;;;;;;;;5035682;28;20103;-70
2021/07/22 13:00:27;;;;;;;4.28;1.50;;;;;;;;;;5051947;28;20049;-70
2021/07/22 13:02:55;;;;;;;2.92;1.50;;;;;;;;;;5053807;28;20056;-70
2021/07/22 13:05:21;;;;;;;3.65;1.55;;;;;;;;;;5053305;28;20041;-70
2021/07/22 13:07:48;;;;;;;3.88;1.70;;;;;;;;;;5053551;28;20476;-70
2021/07/22 13:10:14;;;;;;;2.92;1.75;;;;;;;;;;5048470;28;20077;-70
2021/07/22 13:12:41;;;;;;;5.20;1.60;;;;;;;;;;5044396;28;20127;-70
2021/07/22 13:15:07;;;;;;;4.30;2.33;;;;;;;;;;5053714;28;20045;-70
2021/07/22 13:17:39;;;;;;;4.55;2.38;;;;;;;;;;5053883;28;20052;-70
2021/07/22 13:20:07;;;;;;;3.55;2.20;;;;;;;;;;5052603;28;20116;-70
2021/07/22 13:22:33;;;;;;;5.63;1.80;;;;;;;;;;5052297;28;20072;-70
2021/07/22 13:24:59;;;;;;;4.68;1.80;;;;;;;;;;5053160;28;20075;-70
2021/07/22 13:27:26;;;;;;;4.00;1.98;;;;;;;;;;5052813;28;20123;-70
2021/07/22 13:29:52;;;;;;;6.55;2.60;;;;;;;;;;5053507;28;20045;-70
2021/07/22 13:32:18;;;;;;;5.78;1.80;;;;;;;;;;5053570;28;20117;-70
2021/07/22 13:34:45;;;;;;;4.38;2.33;;;;;;;;;;5052616;28;20456;-70
2021/07/22 13:37:12;;;;;;;3.47;1.85;;;;;;;;;;5053246;28;20063;-70
2021/07/22 13:39:39;;;;;;;3.97;2.00;;;;;;;;;;5053061;28;20041;-70
2021/07/22 13:42:06;;;;;;;3.33;1.45;;;;;;;;;;5052078;28;20496;-70
2021/07/22 13:44:32;;;;;;;5.30;1.70;;;;;;;;;;5053304;28;20080;-70
2021/07/22 13:46:58;;;;;;;3.65;1.48;;;;;;;;;;5052603;28;20049;-70
2021/07/22 13:49:30;;;;;;;4.85;1.40;;;;;;;;;;5052883;28;20091;-70
2021/07/22 13:51:57;;;;;;;5.28;2.17;;;;;;;;;;5050453;28;20072;-70
2021/07/22 13:54:23;;;;;;;4.53;1.70;;;;;;;;;;5042386;28;20041;-70
2021/07/22 13:56:49;;;;;;;3.15;1.30;;;;;;;;;;5048265;28;20063;-70
2021/07/22 13:59:15;;;;;;;3.22;1.33;;;;;;;;;;5039806;28;20111;-70
2021/07/22 14:01:41;;;;;;;3.90;1.35;;;;;;;;;;5040355;28;20049;-70
2021/07/22 14:04:08;;;;;;;4.03;1.40;;;;;;;;;;5046637;28;20503;-70
2021/07/22 14:06:34;;;;;;;4.10;1.60;;;;;;;;;;5046549;28;20041;-70
2021/07/22 14:09:00;;;;;;;3.67;1.60;;;;;;;;;;5042491;28;20055;-70
2021/07/22 14:11:26;;;;;;;3.75;1.55;;;;;;;;;;5049345;28;20045;-70
2021/07/22 14:13:52;;;;;;;5.30;1.73;;;;;;;;;;5043079;28;20049;-70
2021/07/22 14:16:19;;;;;;;3.10;1.38;;;;;;;;;;5039734;28;20125;-70
2021/07/22 14:18:45;;;;;;;3.25;1.50;;;;;;;;;;5046636;28;20143;-70
2021/07/22 14:21:11;;;;;;;2.58;1.20;;;;;;;;;;5042976;28;20115;-70
2021/07/22 14:23:37;;;;;;;4.43;1.50;;;;;;;;;;5040118;28;20045;-70
2021/07/22 14:26:03;;;;;;;3.75;1.52;;;;;;;;;;5047421;28;20045;-70
2021/07/22 14:28:30;;;;;;;3.55;1.58;;;;;;;;;;5044820;28;20092;-70
2021/07/22 14:30:56;;;;;;;3.33;1.52;;;;;;;;;;5038658;28;21126;-70
2021/07/22 14:33:22;;;;;;;3.33;1.50;;;;;;;;;;5046028;28;20465;-70
2021/07/22 14:35:48;;;;;;;2.45;1.30;;;;;;;;;;5042819;28;20136;-70